sensor_id;sensor_type;location;lat;lon;timestamp;P1;durP1;ratioP1;P2;durP2;ratioP2
15921;SDS011;8060;50.948;3.146;2023-07-20T12:47:40;27.30;;;10.07;;
15921;SDS011;8060;50.948;3.146;2023-07-20T12:50:10;20.97;;;9.70;;
15921;SDS011;8060;50.948;3.146;2023-07-20T12:52:39;23.10;;;10.80;;
15921;SDS011;8060;50.948;3.146;2023-07-20T12:55:08;23.23;;;12.60;;
15921;SDS011;8060;50.948;3.146;2023-07-20T12:57:37;14.77;;;10.60;;
15921;SDS011;8060;50.948;3.146;2023-07-20T13:00:06;13.27;;;10.07;;
15921;SDS011;8060;50.948;3.146;2023-07-20T13:02:38;16.90;;;11.30;;
15921;SDS011;8060;50.948;3.146;2023-07-20T13:05:10;12.47;;;10.50;;
15921;SDS011;8060;50.948;3.146;2023-07-20T13:07:39;13.60;;;10.63;;
15921;SDS011;8060;50.948;3.146;2023-07-20T13:10:11;13.57;;;11.27;;
15921;SDS011;8060;50.948;3.146;2023-07-20T13:12:40;15.40;;;10.57;;
15921;SDS011;8060;50.948;3.146;2023-07-20T13:15:09;11.33;;;10.13;;
15921;SDS011;8060;50.948;3.146;2023-07-20T13:17:38;11.23;;;10.03;;
15921;SDS011;8060;50.948;3.146;2023-07-20T13:20:08;12.77;;;10.97;;
15921;SDS011;8060;50.948;3.146;2023-07-20T13:22:38;12.70;;;10.73;;
15921;SDS011;8060;50.948;3.146;2023-07-20T13:25:07;12.80;;;11.50;;
15921;SDS011;8060;50.948;3.146;2023-07-20T13:27:36;16.20;;;11.63;;
15921;SDS011;8060;50.948;3.146;2023-07-20T13:30:05;15.60;;;11.37;;
15921;SDS011;8060;50.948;3.146;2023-07-20T13:32:36;12.60;;;10.43;;
15921;SDS011;8060;50.948;3.146;2023-07-20T13:35:11;11.77;;;10.37;;
15921;SDS011;8060;50.948;3.146;2023-07-20T13:37:39;12.43;;;10.00;;
15921;SDS011;8060;50.948;3.146;2023-07-20T13:40:09;12.33;;;10.17;;
15921;SDS011;8060;50.948;3.146;2023-07-20T13:42:39;10.87;;;9.47;;
15921;SDS011;8060;50.948;3.146;2023-07-20T13:45:08;11.60;;;10.40;;
15921;SDS011;8060;50.948;3.146;2023-07-20T13:47:37;12.90;;;10.27;;
15921;SDS011;8060;50.948;3.146;2023-07-20T13:50:05;11.77;;;10.53;;
15921;SDS011;8060;50.948;3.146;2023-07-20T13:52:52;13.70;;;10.30;;
15921;SDS011;8060;50.948;3.146;2023-07-20T13:55:40;13.63;;;11.20;;
15921;SDS011;8060;50.948;3.146;2023-07-20T13:58:11;12.67;;;10.10;;
15921;SDS011;8060;50.948;3.146;2023-07-20T14:00:39;11.30;;;10.20;;
15921;SDS011;8060;50.948;3.146;2023-07-20T14:03:08;14.03;;;10.30;;
15921;SDS011;8060;50.948;3.146;2023-07-20T14:05:39;11.97;;;10.07;;
15921;SDS011;8060;50.948;3.146;2023-07-20T14:08:14;11.53;;;10.17;;
15921;SDS011;8060;50.948;3.146;2023-07-20T14:10:42;11.03;;;9.93;;
15921;SDS011;8060;50.948;3.146;2023-07-20T14:13:14;15.13;;;10.20;;
15921;SDS011;8060;50.948;3.146;2023-07-20T14:15:42;13.37;;;9.90;;
15921;SDS011;8060;50.948;3.146;2023-07-20T14:18:10;12.73;;;11.20;;
15921;SDS011;8060;50.948;3.146;2023-07-20T14:20:39;12.43;;;11.27;;
15921;SDS011;8060;50.948;3.146;2023-07-20T14:23:07;15.50;;;11.53;;
15921;SDS011;8060;50.948;3.146;2023-07-20T14:25:37;12.07;;;10.30;;
15921;SDS011;8060;50.948;3.146;2023-07-20T14:28:05;15.27;;;10.37;;
15921;SDS011;8060;50.948;3.146;2023-07-20T14:30:33;17.20;;;10.90;;
15921;SDS011;8060;50.948;3.146;2023-07-20T14:33:01;12.03;;;10.17;;
15921;SDS011;8060;50.948;3.146;2023-07-20T14:35:30;9.60;;;8.73;;
15921;SDS011;8060;50.948;3.146;2023-07-20T14:37:59;15.10;;;8.07;;
15921;SDS011;8060;50.948;3.146;2023-07-20T14:40:27;9.40;;;7.27;;
15921;SDS011;8060;50.948;3.146;2023-07-20T14:42:57;8.80;;;7.30;;
15921;SDS011;8060;50.948;3.146;2023-07-20T14:45:27;7.10;;;6.40;;
15921;SDS011;8060;50.948;3.146;2023-07-20T14:47:55;7.80;;;6.97;;
15921;SDS011;8060;50.948;3.146;2023-07-20T14:50:23;8.10;;;6.53;;
15921;SDS011;8060;50.948;3.146;2023-07-20T14:52:52;7.63;;;6.90;;
15921;SDS011;8060;50.948;3.146;2023-07-20T14:55:21;8.30;;;7.50;;
15921;SDS011;8060;50.948;3.146;2023-07-20T14:57:49;8.47;;;6.30;;
15921;SDS011;8060;50.948;3.146;2023-07-20T15:00:19;7.60;;;6.23;;
15921;SDS011;8060;50.948;3.146;2023-07-20T15:02:47;7.03;;;5.70;;
15921;SDS011;8060;50.948;3.146;2023-07-20T15:05:21;6.03;;;5.13;;
15921;SDS011;8060;50.948;3.146;2023-07-20T15:07:51;5.50;;;5.00;;
15921;SDS011;8060;50.948;3.146;2023-07-20T15:10:20;5.27;;;4.33;;
15921;SDS011;8060;50.948;3.146;2023-07-20T15:12:48;4.20;;;3.27;;
15921;SDS011;8060;50.948;3.146;2023-07-20T15:15:16;3.37;;;2.90;;
15921;SDS011;8060;50.948;3.146;2023-07-20T15:17:46;4.50;;;2.37;;
15921;SDS011;8060;50.948;3.146;2023-07-20T15:20:16;2.77;;;1.83;;
15921;SDS011;8060;50.948;3.146;2023-07-20T15:22:44;4.33;;;1.70;;
15921;SDS011;8060;50.948;3.146;2023-07-20T15:25:15;3.20;;;1.80;;
15921;SDS011;8060;50.948;3.146;2023-07-20T15:27:43;4.10;;;1.93;;
15921;SDS011;8060;50.948;3.146;2023-07-20T15:30:16;1.93;;;1.73;;
15921;SDS011;8060;50.948;3.146;2023-07-20T15:32:49;2.67;;;2.00;;
15921;SDS011;8060;50.948;3.146;2023-07-20T15:35:20;2.80;;;2.00;;
15921;SDS011;8060;50.948;3.146;2023-07-20T15:37:49;2.70;;;2.07;;
15921;SDS011;8060;50.948;3.146;2023-07-20T15:40:17;2.37;;;2.00;;
15921;SDS011;8060;50.948;3.146;2023-07-20T15:42:46;4.07;;;2.30;;
15921;SDS011;8060;50.948;3.146;2023-07-20T15:45:20;3.10;;;2.67;;
15921;SDS011;8060;50.948;3.146;2023-07-20T15:47:48;3.27;;;2.80;;
15921;SDS011;8060;50.948;3.146;2023-07-20T15:50:17;5.83;;;2.90;;
15921;SDS011;8060;50.948;3.146;2023-07-20T15:52:48;3.97;;;3.00;;
15921;SDS011;8060;50.948;3.146;2023-07-20T15:55:16;5.43;;;3.00;;
15921;SDS011;8060;50.948;3.146;2023-07-20T15:57:45;5.20;;;4.30;;
15921;SDS011;8060;50.948;3.146;2023-07-20T16:00:13;6.60;;;4.70;;
15921;SDS011;8060;50.948;3.146;2023-07-20T16:02:45;5.33;;;4.83;;
15921;SDS011;8060;50.948;3.146;2023-07-20T16:05:15;5.50;;;5.00;;
15921;SDS011;8060;50.948;3.146;2023-07-20T16:07:43;8.37;;;5.17;;
15921;SDS011;8060;50.948;3.146;2023-07-20T16:10:11;5.80;;;4.97;;
15921;SDS011;8060;50.948;3.146;2023-07-20T16:12:40;7.43;;;4.80;;
15921;SDS011;8060;50.948;3.146;2023-07-20T16:15:09;7.13;;;5.97;;
15921;SDS011;8060;50.948;3.146;2023-07-20T16:17:38;5.57;;;5.07;;
15921;SDS011;8060;50.948;3.146;2023-07-20T16:20:09;6.30;;;5.27;;
15921;SDS011;8060;50.948;3.146;2023-07-20T16:22:39;6.93;;;5.40;;
15921;SDS011;8060;50.948;3.146;2023-07-20T16:25:10;11.23;;;5.20;;
15921;SDS011;8060;50.948;3.146;2023-07-20T16:27:38;5.33;;;4.83;;
15921;SDS011;8060;50.948;3.146;2023-07-20T16:30:06;6.27;;;5.33;;
15921;SDS011;8060;50.948;3.146;2023-07-20T16:32:35;5.40;;;4.90;;
15921;SDS011;8060;50.948;3.146;2023-07-20T16:35:08;8.17;;;5.07;;
15921;SDS011;8060;50.948;3.146;2023-07-20T16:37:37;7.73;;;5.53;;
15921;SDS011;8060;50.948;3.146;2023-07-20T16:40:07;5.47;;;4.90;;
15921;SDS011;8060;50.948;3.146;2023-07-20T16:42:41;6.43;;;4.60;;
15921;SDS011;8060;50.948;3.146;2023-07-20T16:45:12;6.13;;;5.00;;
15921;SDS011;8060;50.948;3.146;2023-07-20T16:47:41;5.83;;;5.17;;
15921;SDS011;8060;50.948;3.146;2023-07-20T16:50:11;7.70;;;5.33;;
15921;SDS011;8060;50.948;3.146;2023-07-20T16:52:39;7.87;;;5.53;;
15921;SDS011;8060;50.948;3.146;2023-07-20T16:55:07;5.10;;;4.60;;
15921;SDS011;8060;50.948;3.146;2023-07-20T16:57:36;6.23;;;5.20;;
15921;SDS011;8060;50.948;3.146;2023-07-20T17:00:05;5.73;;;4.97;;
15921;SDS011;8060;50.948;3.146;2023-07-20T17:02:37;7.17;;;4.80;;
15921;SDS011;8060;50.948;3.146;2023-07-20T17:05:06;5.47;;;4.50;;
15921;SDS011;8060;50.948;3.146;2023-07-20T17:07:37;4.17;;;3.60;;
15921;SDS011;8060;50.948;3.146;2023-07-20T17:10:07;4.97;;;4.03;;
15921;SDS011;8060;50.948;3.146;2023-07-20T17:12:36;6.00;;;3.50;;
15921;SDS011;8060;50.948;3.146;2023-07-20T17:15:06;6.93;;;4.30;;
15921;SDS011;8060;50.948;3.146;2023-07-20T17:17:35;4.50;;;3.93;;
15921;SDS011;8060;50.948;3.146;2023-07-20T17:20:03;4.97;;;4.47;;
15921;SDS011;8060;50.948;3.146;2023-07-20T17:22:35;7.30;;;4.07;;
15921;SDS011;8060;50.948;3.146;2023-07-20T17:25:05;6.07;;;3.93;;
15921;SDS011;8060;50.948;3.146;2023-07-20T17:27:39;5.77;;;4.27;;
15921;SDS011;8060;50.948;3.146;2023-07-20T17:30:10;6.90;;;4.90;;
15921;SDS011;8060;50.948;3.146;2023-07-20T17:32:39;5.83;;;4.50;;
15921;SDS011;8060;50.948;3.146;2023-07-20T17:35:08;7.90;;;4.57;;
15921;SDS011;8060;50.948;3.146;2023-07-20T17:37:41;6.77;;;4.57;;
15921;SDS011;8060;50.948;3.146;2023-07-20T17:40:12;5.63;;;5.00;;
15921;SDS011;8060;50.948;3.146;2023-07-20T17:42:44;7.40;;;5.00;;
15921;SDS011;8060;50.948;3.146;2023-07-20T17:45:16;7.30;;;5.17;;
15921;SDS011;8060;50.948;3.146;2023-07-20T17:47:44;8.53;;;5.57;;
15921;SDS011;8060;50.948;3.146;2023-07-20T17:50:12;5.73;;;4.77;;
15921;SDS011;8060;50.948;3.146;2023-07-20T17:52:42;5.30;;;4.70;;
15921;SDS011;8060;50.948;3.146;2023-07-20T17:55:11;6.90;;;4.83;;
15921;SDS011;8060;50.948;3.146;2023-07-20T17:57:39;6.33;;;4.97;;
15921;SDS011;8060;50.948;3.146;2023-07-20T18:00:08;5.50;;;5.00;;
15921;SDS011;8060;50.948;3.146;2023-07-20T18:02:40;6.00;;;5.40;;
15921;SDS011;8060;50.948;3.146;2023-07-20T18:05:09;6.73;;;5.30;;
15921;SDS011;8060;50.948;3.146;2023-07-20T18:07:37;6.60;;;5.37;;
15921;SDS011;8060;50.948;3.146;2023-07-20T18:10:09;6.63;;;5.93;;
15921;SDS011;8060;50.948;3.146;2023-07-20T18:12:37;6.90;;;6.20;;
15921;SDS011;8060;50.948;3.146;2023-07-20T18:15:05;6.73;;;5.77;;
15921;SDS011;8060;50.948;3.146;2023-07-20T18:17:35;6.27;;;5.63;;
15921;SDS011;8060;50.948;3.146;2023-07-20T18:20:04;7.80;;;5.80;;
15921;SDS011;8060;50.948;3.146;2023-07-20T18:22:34;7.20;;;5.70;;
15921;SDS011;8060;50.948;3.146;2023-07-20T18:25:02;7.77;;;5.87;;
15921;SDS011;8060;50.948;3.146;2023-07-20T18:27:33;6.07;;;5.27;;
15921;SDS011;8060;50.948;3.146;2023-07-20T18:30:04;6.20;;;5.43;;
15921;SDS011;8060;50.948;3.146;2023-07-20T18:32:33;8.03;;;6.70;;
15921;SDS011;8060;50.948;3.146;2023-07-20T18:35:01;7.67;;;6.87;;
15921;SDS011;8060;50.948;3.146;2023-07-20T18:37:30;8.13;;;7.00;;
15921;SDS011;8060;50.948;3.146;2023-07-20T18:39:58;6.80;;;6.20;;
15921;SDS011;8060;50.948;3.146;2023-07-20T18:42:26;6.80;;;6.10;;
15921;SDS011;8060;50.948;3.146;2023-07-20T18:44:56;6.83;;;6.20;;
15921;SDS011;8060;50.948;3.146;2023-07-20T18:47:30;6.97;;;6.27;;
15921;SDS011;8060;50.948;3.146;2023-07-20T18:50:05;7.33;;;6.63;;
15921;SDS011;8060;50.948;3.146;2023-07-20T18:52:36;8.80;;;7.17;;
15921;SDS011;8060;50.948;3.146;2023-07-20T18:55:05;9.80;;;6.87;;
15921;SDS011;8060;50.948;3.146;2023-07-20T18:57:34;7.47;;;6.73;;
15921;SDS011;8060;50.948;3.146;2023-07-20T19:00:05;7.57;;;6.73;;
15921;SDS011;8060;50.948;3.146;2023-07-20T19:02:36;11.00;;;6.83;;
15921;SDS011;8060;50.948;3.146;2023-07-20T19:05:05;9.00;;;7.10;;
15921;SDS011;8060;50.948;3.146;2023-07-20T19:07:33;9.23;;;7.87;;
15921;SDS011;8060;50.948;3.146;2023-07-20T19:10:02;10.13;;;7.10;;
15921;SDS011;8060;50.948;3.146;2023-07-20T19:12:30;8.00;;;7.20;;
15921;SDS011;8060;50.948;3.146;2023-07-20T19:14:59;9.40;;;7.30;;
15921;SDS011;8060;50.948;3.146;2023-07-20T19:17:28;9.00;;;7.20;;
